Time;durP1;ratioP1;P1;durP2;ratioP2;P2;SDS_P1;SDS_P2;PMS_P1;PMS_P2;Temp;Humidity;BMP_temperature;BMP_pressure;BME280_temperature;BME280_humidity;BME280_pressure;Samples;Min_cycle;Max_cycle;Signal;HPM_P1;HPM_P2
2021/05/18 00:01:02;;;;;;;;;;;20.20;57.60;;;;;;5000447;28;20013;-52
2021/05/18 00:03:28;;;;;;;;;;;20.20;57.70;;;;;;4994195;28;20171;-53
2021/05/18 00:05:54;;;;;;;;;;;20.20;57.70;;;;;;5000747;28;20022;-55
2021/05/18 00:08:22;;;;;;;;;;;20.20;57.60;;;;;;5002549;28;19926;-53
2021/05/18 00:13:34;;;;;;;;;;;20.20;57.60;;;;;;4989338;28;19925;-55
2021/05/18 00:16:00;;;;;;;;;;;20.20;57.60;;;;;;4997263;28;19929;-55
2021/05/18 00:18:25;;;;;;;;;;;20.10;57.60;;;;;;4994460;28;19918;-54
2021/05/18 00:20:51;;;;;;;;;;;20.20;57.60;;;;;;5002961;28;20398;-52
2021/05/18 00:23:17;;;;;;;;;;;20.20;57.60;;;;;;5001821;28;20479;-55
2021/05/18 00:25:42;;;;;;;;;;;20.20;57.60;;;;;;5000966;28;20204;-51
2021/05/18 00:28:08;;;;;;;;;;;20.20;57.60;;;;;;4999795;28;19924;-53
2021/05/18 00:30:33;;;;;;;;;;;20.20;57.60;;;;;;5000357;28;20414;-54
2021/05/18 00:32:59;;;;;;;;;;;20.20;57.60;;;;;;4994308;28;19933;-51
2021/05/18 00:35:25;;;;;;;;;;;20.20;57.50;;;;;;4996544;28;19925;-52
2021/05/18 00:37:51;;;;;;;;;;;20.10;58.20;;;;;;4997916;28;20291;-55
2021/05/18 00:40:17;;;;;;;;;;;20.10;57.40;;;;;;5002109;28;20379;-52
2021/05/18 00:42:46;;;;;;;;;;;20.10;57.50;;;;;;4999522;28;19917;-52
2021/05/18 00:45:12;;;;;;;;;;;20.20;57.50;;;;;;4985048;28;19929;-55
2021/05/18 00:47:38;;;;;;;;;;;20.20;57.40;;;;;;5026567;23;19933;-59
2021/05/18 00:50:03;;;;;;;;;;;20.20;57.60;;;;;;5034083;28;19974;-57
2021/05/18 00:52:29;;;;;;;;;;;20.10;57.50;;;;;;5037255;28;19925;-58
2021/05/18 00:55:00;;;;;;;;;;;20.20;57.40;;;;;;5029358;28;19921;-57
2021/05/18 01:00:10;;;;;;;;;;;20.20;57.40;;;;;;5033515;28;19970;-59
2021/05/18 01:02:35;;;;;;;;;;;20.20;57.50;;;;;;5023002;28;20324;-59
2021/05/18 01:05:10;;;;;;;;;;;20.20;57.30;;;;;;5030287;28;20374;-58
2021/05/18 01:07:35;;;;;;;;;;;20.20;57.50;;;;;;5030403;28;19917;-59
2021/05/18 01:10:01;;;;;;;;;;;20.20;57.40;;;;;;5033241;28;20400;-58
2021/05/18 01:12:26;;;;;;;;;;;20.10;57.40;;;;;;5031560;28;19917;-58
2021/05/18 01:14:52;;;;;;;;;;;20.10;57.30;;;;;;5032857;28;20159;-59
2021/05/18 01:17:17;;;;;;;;;;;20.10;57.30;;;;;;5031701;28;19918;-58
2021/05/18 01:19:43;;;;;;;;;;;20.20;57.30;;;;;;5034621;28;20381;-57
2021/05/18 01:22:08;;;;;;;;;;;20.20;57.20;;;;;;5024128;28;19960;-58
2021/05/18 01:24:34;;;;;;;;;;;20.20;57.20;;;;;;5026370;28;19924;-59
2021/05/18 01:27:00;;;;;;;;;;;20.20;57.20;;;;;;5025464;28;22098;-58
2021/05/18 01:29:25;;;;;;;;;;;20.20;57.20;;;;;;5014915;28;19924;-58
2021/05/18 01:31:51;;;;;;;;;;;20.20;57.20;;;;;;5033002;28;19920;-58
2021/05/18 01:34:16;;;;;;;;;;;20.10;57.20;;;;;;5032719;28;19924;-59
2021/05/18 01:36:42;;;;;;;;;;;20.10;57.20;;;;;;5023533;28;19927;-58
2021/05/18 01:44:25;;;;;;;;;;;20.20;57.20;;;;;;5032994;28;19970;-58
2021/05/18 01:46:52;;;;;;;;;;;20.20;57.20;;;;;;5023245;28;20306;-59
2021/05/18 01:49:18;;;;;;;;;;;20.20;57.10;;;;;;5023223;28;19928;-58
2021/05/18 01:51:44;;;;;;;;;;;20.20;57.10;;;;;;5031357;28;19940;-59
2021/05/18 01:54:11;;;;;;;;;;;20.10;57.10;;;;;;5023279;28;19921;-59
2021/05/18 01:56:43;;;;;;;;;;;20.10;57.10;;;;;;5032446;28;20388;-60
2021/05/18 01:59:10;;;;;;;;;;;20.10;57.20;;;;;;5024011;28;19929;-58
2021/05/18 02:01:36;;;;;;;;;;;20.20;57.10;;;;;;5028702;28;20333;-58
2021/05/18 02:04:01;;;;;;;;;;;20.10;57.10;;;;;;5033413;28;19924;-57
2021/05/18 02:06:27;;;;;;;;;;;20.10;57.10;;;;;;5033830;28;20016;-58
2021/05/18 02:08:52;;;;;;;;;;;20.10;57.10;;;;;;5023114;28;20275;-58
2021/05/18 02:11:18;;;;;;;;;;;20.10;57.00;;;;;;5031713;28;19943;-56
2021/05/18 02:13:47;;;;;;;;;;;20.10;57.10;;;;;;5028943;28;19917;-58
2021/05/18 02:16:17;;;;;;;;;;;20.10;57.00;;;;;;5026534;28;20641;-59
2021/05/18 02:26:24;;;;;;;;;;;20.10;57.00;;;;;;5010265;28;19928;-59
2021/05/18 02:28:49;;;;;;;;;;;20.10;57.10;;;;;;5028626;28;20114;-64
2021/05/18 02:31:15;;;;;;;;;;;20.10;57.10;;;;;;5031593;28;19924;-58
2021/05/18 02:33:47;;;;;;;;;;;20.10;57.10;;;;;;5035149;28;19921;-58
2021/05/18 02:36:13;;;;;;;;;;;20.10;57.10;;;;;;5029166;28;19925;-58
2021/05/18 02:38:38;;;;;;;;;;;20.10;57.00;;;;;;5027185;28;19924;-58
2021/05/18 02:41:04;;;;;;;;;;;20.10;57.00;;;;;;5026221;28;19974;-59
2021/05/18 02:43:37;;;;;;;;;;;20.10;57.10;;;;;;5033138;28;19917;-57
2021/05/18 02:46:08;;;;;;;;;;;20.10;57.10;;;;;;5027874;28;20390;-59
2021/05/18 02:51:17;;;;;;;;;;;20.10;57.00;;;;;;5030096;28;19958;-59
2021/05/18 02:53:43;;;;;;;;;;;20.10;56.90;;;;;;5025898;28;19921;-58
2021/05/18 02:56:21;;;;;;;;;;;20.10;56.90;;;;;;5016788;28;19920;-58
2021/05/18 03:01:45;;;;;;;;;;;20.10;57.00;;;;;;4992951;28;19924;-58
2021/05/18 03:04:10;;;;;;;;;;;20.10;56.90;;;;;;5010765;28;20032;-59
2021/05/18 03:06:36;;;;;;;;;;;20.10;56.90;;;;;;5014792;28;20027;-58
2021/05/18 03:09:07;;;;;;;;;;;20.10;57.50;;;;;;5031467;28;19921;-58
2021/05/18 03:11:32;;;;;;;;;;;20.10;56.90;;;;;;5030343;28;20004;-59
2021/05/18 03:13:58;;;;;;;;;;;20.10;56.90;;;;;;5012552;28;20007;-57
2021/05/18 03:16:23;;;;;;;;;;;20.10;56.90;;;;;;5023093;28;20378;-58
2021/05/18 03:18:49;;;;;;;;;;;20.10;56.80;;;;;;5005552;28;20066;-59
2021/05/18 03:21:14;;;;;;;;;;;20.10;56.80;;;;;;5028884;28;19943;-58
2021/05/18 03:23:39;;;;;;;;;;;20.10;56.80;;;;;;5027014;28;19925;-58
2021/05/18 03:26:05;;;;;;;;;;;20.10;56.80;;;;;;5023994;28;20406;-58
2021/05/18 03:28:30;;;;;;;;;;;20.10;56.90;;;;;;5030562;28;19929;-58
2021/05/18 03:36:06;;;;;;;;;;;20.10;56.70;;;;;;5027998;28;20477;-58
2021/05/18 03:38:41;;;;;;;;;;;20.00;56.70;;;;;;5025251;28;19943;-58
2021/05/18 03:41:30;;;;;;;;;;;20.10;57.50;;;;;;5027844;28;20577;-58
2021/05/18 03:44:02;;;;;;;;;;;20.10;56.70;;;;;;5025678;28;19917;-59
2021/05/18 04:11:20;;;;;;;;;;;20.10;56.60;;;;;;5036500;28;20024;-58
2021/05/18 04:19:12;;;;;;;;;;;20.10;56.60;;;;;;5025385;28;19940;-58
2021/05/18 04:51:37;;;;;;;;;;;19.90;58.10;;;;;;5026578;28;19924;-60
2021/05/18 04:59:45;;;;;;;;;;;19.80;58.30;;;;;;5032375;28;20371;-58
2021/05/18 05:02:52;;;;;;;;;;;19.80;58.30;;;;;;5037077;28;20028;-54
2021/05/18 05:12:30;;;;;;;;;;;19.90;58.30;;;;;;5034956;28;19929;-57
2021/05/18 05:15:41;;;;;;;;;;;19.90;58.10;;;;;;5036371;28;19960;-56
2021/05/18 05:18:06;;;;;;;;;;;19.90;58.10;;;;;;5030015;28;19956;-52
2021/05/18 05:20:32;;;;;;;;;;;19.90;58.00;;;;;;5023050;28;19921;-56
2021/05/18 05:22:57;;;;;;;;;;;19.90;57.90;;;;;;5036772;28;20000;-57
2021/05/18 05:25:23;;;;;;;;;;;19.90;57.90;;;;;;5026223;28;19936;-56
2021/05/18 05:27:48;;;;;;;;;;;19.90;57.80;;;;;;5026834;28;20007;-58
2021/05/18 05:30:14;;;;;;;;;;;19.90;57.70;;;;;;5028802;28;19924;-58
2021/05/18 05:32:39;;;;;;;;;;;20.00;57.70;;;;;;5031887;28;19940;-56
2021/05/18 05:35:05;;;;;;;;;;;20.00;57.80;;;;;;5042218;28;19919;-57
2021/05/18 05:37:30;;;;;;;;;;;19.90;57.70;;;;;;5024202;28;19972;-60
2021/05/18 05:39:56;;;;;;;;;;;20.00;57.70;;;;;;5025370;28;20263;-60
2021/05/18 05:42:21;;;;;;;;;;;20.00;57.60;;;;;;5035725;28;19921;-55
2021/05/18 05:44:47;;;;;;;;;;;20.00;57.50;;;;;;5025407;28;19925;-58
2021/05/18 05:47:12;;;;;;;;;;;20.00;57.70;;;;;;5037808;28;19944;-59
2021/05/18 05:49:38;;;;;;;;;;;20.00;58.30;;;;;;5025705;28;20015;-59
2021/05/18 05:52:04;;;;;;;;;;;20.00;58.30;;;;;;5032938;28;19917;-60
2021/05/18 05:54:30;;;;;;;;;;;20.00;58.60;;;;;;5031322;28;20401;-60
2021/05/18 05:56:55;;;;;;;;;;;20.00;58.40;;;;;;5005580;28;19917;-59
2021/05/18 05:59:21;;;;;;;;;;;20.00;58.20;;;;;;5027951;28;20385;-59
2021/05/18 06:01:49;;;;;;;;;;;20.00;58.10;;;;;;5033935;28;19998;-60
2021/05/18 06:04:15;;;;;;;;;;;20.00;58.10;;;;;;5030114;28;19920;-59
2021/05/18 06:06:40;;;;;;;;;;;20.10;58.20;;;;;;5030311;28;20283;-60
2021/05/18 06:09:06;;;;;;;;;;;20.10;58.10;;;;;;5028103;28;19927;-60
2021/05/18 06:11:46;;;;;;;;;;;20.10;58.10;;;;;;5035069;28;19913;-60
2021/05/18 06:43:28;;;;;;;;;;;20.20;57.30;;;;;;5035093;28;20825;-60
2021/05/18 06:48:28;;;;;;;;;;;20.20;57.10;;;;;;5031576;28;20374;-59
2021/05/18 06:53:28;;;;;;;;;;;20.20;57.00;;;;;;5013723;28;19930;-66
2021/05/18 06:55:56;;;;;;;;;;;20.20;57.10;;;;;;5017944;28;19910;-67
2021/05/18 06:58:46;;;;;;;;;;;20.20;57.00;;;;;;5011087;28;19952;-67
2021/05/18 07:01:12;;;;;;;;;;;20.20;57.20;;;;;;5000844;28;20439;-68
2021/05/18 07:03:43;;;;;;;;;;;20.20;57.10;;;;;;5041826;28;20054;-68
2021/05/18 07:06:38;;;;;;;;;;;20.20;57.00;;;;;;5029588;28;19914;-66
2021/05/18 07:09:03;;;;;;;;;;;20.20;56.90;;;;;;5033705;28;19948;-68
2021/05/18 07:11:29;;;;;;;;;;;20.20;57.00;;;;;;5032379;28;20367;-67
2021/05/18 07:13:55;;;;;;;;;;;20.20;56.70;;;;;;5036262;28;19915;-68
2021/05/18 07:16:20;;;;;;;;;;;20.20;56.60;;;;;;5031504;28;19913;-68
2021/05/18 07:18:45;;;;;;;;;;;20.20;56.60;;;;;;5041460;28;19909;-67
2021/05/18 07:21:11;;;;;;;;;;;20.20;56.50;;;;;;5035812;28;20402;-65
2021/05/18 07:23:36;;;;;;;;;;;20.20;57.20;;;;;;5030180;28;19909;-67
2021/05/18 07:26:03;;;;;;;;;;;20.20;56.60;;;;;;5044974;28;20601;-67
2021/05/18 07:28:31;;;;;;;;;;;20.20;56.60;;;;;;5049533;28;19970;-67
2021/05/18 07:30:57;;;;;;;;;;;20.20;56.70;;;;;;5036663;28;20020;-67
2021/05/18 07:33:23;;;;;;;;;;;20.20;56.70;;;;;;5016287;28;20404;-67
2021/05/18 07:35:53;;;;;;;;;;;20.20;56.70;;;;;;5033802;28;19913;-66
2021/05/18 07:38:18;;;;;;;;;;;20.20;56.80;;;;;;5037014;28;19917;-67
2021/05/18 07:40:44;;;;;;;;;;;20.20;56.80;;;;;;5044995;28;19939;-67
2021/05/18 07:43:13;;;;;;;;;;;20.20;56.80;;;;;;5023258;28;19913;-66
2021/05/18 07:45:38;;;;;;;;;;;20.20;56.80;;;;;;5034131;28;19919;-67
2021/05/18 07:50:46;;;;;;;;;;;20.20;56.80;;;;;;5035547;28;20106;-67
2021/05/18 08:02:21;;;;;;;;;;;20.20;56.90;;;;;;5040393;28;19923;-67
2021/05/18 08:06:54;;;;;;;;;;;20.20;56.90;;;;;;5035080;28;19948;-67
2021/05/18 08:09:22;;;;;;;;;;;20.20;57.60;;;;;;5037308;28;19913;-67
2021/05/18 08:11:47;;;;;;;;;;;20.20;56.90;;;;;;5037180;28;19948;-67
2021/05/18 08:14:12;;;;;;;;;;;20.20;57.00;;;;;;5032897;28;19913;-67
2021/05/18 08:20:22;;;;;;;;;;;20.20;56.90;;;;;;5040650;28;20004;-67
2021/05/18 09:36:16;;;;;;;;;;;20.20;56.90;;;;;;5034571;28;19976;-68
2021/05/18 09:41:52;;;;;;;;;;;20.20;56.80;;;;;;5023809;28;20090;-67
2021/05/18 10:35:33;;;;;;;;;;;20.20;56.70;;;;;;5035190;28;19909;-67
2021/05/18 10:38:00;;;;;;;;;;;20.20;56.70;;;;;;5034534;28;19963;-66
2021/05/18 10:40:26;;;;;;;;;;;20.10;56.70;;;;;;5025971;28;19939;-66
2021/05/18 10:43:04;;;;;;;;;;;20.10;56.70;;;;;;5044915;28;20297;-66
2021/05/18 10:45:48;;;;;;;;;;;20.10;56.70;;;;;;5039535;28;19909;-67
2021/05/18 10:48:13;;;;;;;;;;;20.10;56.70;;;;;;5033038;28;19913;-67
2021/05/18 10:50:42;;;;;;;;;;;20.10;56.70;;;;;;5031678;28;20378;-67
2021/05/18 10:53:20;;;;;;;;;;;20.20;56.80;;;;;;5034137;28;19940;-66
2021/05/18 10:56:03;;;;;;;;;;;20.10;56.80;;;;;;5030331;28;19988;-67
2021/05/18 10:58:29;;;;;;;;;;;20.10;56.70;;;;;;5025445;28;20556;-67
2021/05/18 11:00:54;;;;;;;;;;;20.10;56.80;;;;;;5033372;28;19924;-67
2021/05/18 11:03:20;;;;;;;;;;;20.20;56.80;;;;;;5018971;28;19913;-67
2021/05/18 11:05:45;;;;;;;;;;;20.10;56.70;;;;;;5046233;28;19908;-67
2021/05/18 11:08:14;;;;;;;;;;;20.10;56.80;;;;;;5018975;28;20069;-67
2021/05/18 11:10:40;;;;;;;;;;;20.20;56.80;;;;;;5026100;28;19913;-67
2021/05/18 11:13:06;;;;;;;;;;;20.10;56.70;;;;;;5033955;28;19909;-67
2021/05/18 11:15:31;;;;;;;;;;;20.10;56.70;;;;;;5019505;28;20618;-68
2021/05/18 11:17:57;;;;;;;;;;;20.20;56.70;;;;;;5032407;28;19999;-67
2021/05/18 11:26:01;;;;;;;;;;;20.10;56.70;;;;;;5026465;28;19919;-67
2021/05/18 11:28:45;;;;;;;;;;;20.10;56.70;;;;;;5025476;28;20328;-67
2021/05/18 11:31:21;;;;;;;;;;;20.10;56.70;;;;;;5036968;28;19921;-67
2021/05/18 11:33:53;;;;;;;;;;;20.10;56.60;;;;;;5020757;28;19916;-67
2021/05/18 11:36:23;;;;;;;;;;;20.10;56.60;;;;;;5034447;28;19916;-67
2021/05/18 11:38:48;;;;;;;;;;;20.10;56.60;;;;;;5033902;28;19909;-67
2021/05/18 11:41:26;;;;;;;;;;;20.10;56.70;;;;;;5042459;28;20398;-67
2021/05/18 11:43:54;;;;;;;;;;;20.10;56.70;;;;;;5022614;28;19909;-67
2021/05/18 11:46:19;;;;;;;;;;;20.10;56.70;;;;;;5033692;28;19940;-67
2021/05/18 11:49:00;;;;;;;;;;;20.10;56.70;;;;;;5038912;28;20387;-68
2021/05/18 11:51:29;;;;;;;;;;;20.10;56.70;;;;;;5044009;28;20395;-68
2021/05/18 11:53:55;;;;;;;;;;;20.10;56.70;;;;;;5031372;28;20342;-68
2021/05/18 11:56:27;;;;;;;;;;;20.10;56.70;;;;;;5038197;28;19917;-66
2021/05/18 11:59:03;;;;;;;;;;;20.10;56.70;;;;;;5024272;28;19985;-66
2021/05/18 12:01:29;;;;;;;;;;;20.10;56.80;;;;;;5023667;28;19949;-67
2021/05/18 12:04:01;;;;;;;;;;;20.10;56.70;;;;;;5002645;28;19952;-66
2021/05/18 12:06:27;;;;;;;;;;;20.10;56.70;;;;;;5032472;28;20456;-67
2021/05/18 12:08:55;;;;;;;;;;;20.10;56.70;;;;;;5025954;28;20360;-67
2021/05/18 12:11:21;;;;;;;;;;;20.10;56.80;;;;;;5037261;28;19916;-67
2021/05/18 12:13:47;;;;;;;;;;;20.20;56.80;;;;;;5033977;28;19909;-67
2021/05/18 12:16:13;;;;;;;;;;;20.10;56.80;;;;;;5021850;28;19909;-63
2021/05/18 12:18:39;;;;;;;;;;;20.10;56.80;;;;;;5043814;28;20412;-67
2021/05/18 12:21:12;;;;;;;;;;;20.20;56.80;;;;;;5032877;28;19992;-67
2021/05/18 12:23:37;;;;;;;;;;;20.10;56.80;;;;;;5010454;28;19910;-67
2021/05/18 12:26:13;;;;;;;;;;;20.20;56.90;;;;;;5037318;28;19987;-68
2021/05/18 12:28:38;;;;;;;;;;;20.10;56.90;;;;;;5033223;28;20438;-68
2021/05/18 12:31:06;;;;;;;;;;;20.10;56.80;;;;;;5047378;28;19920;-67
2021/05/18 12:33:39;;;;;;;;;;;20.10;56.90;;;;;;5024678;28;20021;-66
2021/05/18 12:36:05;;;;;;;;;;;20.10;56.80;;;;;;5033931;28;19916;-68
2021/05/18 12:38:30;;;;;;;;;;;20.10;56.80;;;;;;5026622;28;19909;-68
2021/05/18 12:41:05;;;;;;;;;;;20.10;56.90;;;;;;5037061;28;20288;-68
2021/05/18 12:43:40;;;;;;;;;;;20.10;56.80;;;;;;5041114;28;19909;-67
2021/05/18 12:46:07;;;;;;;;;;;20.10;56.70;;;;;;5045285;28;20360;-67
2021/05/18 12:48:36;;;;;;;;;;;20.10;56.80;;;;;;5043001;28;19909;-67
2021/05/18 12:51:01;;;;;;;;;;;20.20;56.80;;;;;;5023869;28;19920;-68
2021/05/18 12:53:30;;;;;;;;;;;20.10;56.80;;;;;;5014854;28;19917;-68
2021/05/18 12:55:56;;;;;;;;;;;20.10;56.80;;;;;;5031990;28;20007;-67
2021/05/18 12:58:25;;;;;;;;;;;20.10;56.80;;;;;;5032431;28;20374;-68
2021/05/18 13:00:51;;;;;;;;;;;20.10;57.50;;;;;;5047982;28;19916;-68
2021/05/18 13:03:20;;;;;;;;;;;20.10;56.80;;;;;;5022848;28;19909;-68
2021/05/18 13:05:49;;;;;;;;;;;20.10;57.50;;;;;;5045912;28;19948;-67
2021/05/18 13:08:14;;;;;;;;;;;20.10;56.80;;;;;;5038784;28;19917;-63
2021/05/18 13:10:53;;;;;;;;;;;20.10;56.90;;;;;;5038529;28;20304;-67
2021/05/18 13:13:19;;;;;;;;;;;20.10;56.80;;;;;;5045248;28;19909;-66
2021/05/18 13:15:44;;;;;;;;;;;20.10;56.80;;;;;;5036042;28;19909;-67
2021/05/18 13:18:11;;;;;;;;;;;20.10;56.80;;;;;;5027911;28;20261;-67
2021/05/18 13:20:38;;;;;;;;;;;20.10;56.80;;;;;;5031920;28;19952;-67
2021/05/18 13:23:04;;;;;;;;;;;20.10;56.70;;;;;;5017721;28;19975;-67
2021/05/18 13:28:17;;;;;;;;;;;20.10;56.90;;;;;;5040686;28;19919;-67
2021/05/18 13:30:43;;;;;;;;;;;20.10;56.80;;;;;;5042528;28;19920;-67
2021/05/18 13:33:08;;;;;;;;;;;20.10;56.90;;;;;;5038046;28;19916;-67
2021/05/18 13:35:34;;;;;;;;;;;20.10;56.90;;;;;;5038800;28;19913;-67
2021/05/18 13:37:59;;;;;;;;;;;20.10;57.10;;;;;;5041966;28;19938;-67
2021/05/18 13:40:25;;;;;;;;;;;20.10;57.00;;;;;;5036912;28;19909;-66
2021/05/18 13:42:52;;;;;;;;;;;20.10;57.10;;;;;;5018121;28;20295;-67
2021/05/18 13:45:18;;;;;;;;;;;20.10;57.30;;;;;;5030641;28;19916;-67
2021/05/18 13:47:43;;;;;;;;;;;20.10;57.30;;;;;;5041621;28;19913;-67
2021/05/18 13:50:09;;;;;;;;;;;20.10;57.30;;;;;;5039533;28;20280;-67
2021/05/18 13:52:34;;;;;;;;;;;20.10;57.30;;;;;;5040921;28;20294;-67
2021/05/18 13:55:00;;;;;;;;;;;20.10;57.30;;;;;;5033720;28;19909;-67
2021/05/18 13:57:25;;;;;;;;;;;20.10;57.30;;;;;;5032963;28;20589;-67
2021/05/18 13:59:51;;;;;;;;;;;20.00;57.30;;;;;;5037142;28;19909;-67
2021/05/18 14:02:17;;;;;;;;;;;20.00;57.40;;;;;;5030567;28;20483;-67
2021/05/18 14:04:42;;;;;;;;;;;20.00;57.40;;;;;;5034758;28;19913;-67
2021/05/18 14:10:00;;;;;;;;;;;20.10;57.40;;;;;;5022167;28;20371;-67
2021/05/18 14:12:25;;;;;;;;;;;20.00;57.30;;;;;;5028600;28;19909;-65
2021/05/18 14:14:51;;;;;;;;;;;20.10;57.50;;;;;;5033223;28;19935;-67
2021/05/18 14:17:16;;;;;;;;;;;20.00;57.30;;;;;;5027323;28;19909;-67
2021/05/18 14:19:41;;;;;;;;;;;20.00;57.20;;;;;;5034103;28;19909;-67
2021/05/18 14:22:07;;;;;;;;;;;20.10;57.30;;;;;;5041522;28;20371;-67
2021/05/18 14:24:45;;;;;;;;;;;20.10;57.20;;;;;;5028247;28;19932;-67
2021/05/18 14:27:18;;;;;;;;;;;20.10;57.20;;;;;;5039592;28;19952;-66
2021/05/18 14:29:43;;;;;;;;;;;20.10;57.20;;;;;;5012030;28;19921;-67
2021/05/18 14:32:09;;;;;;;;;;;20.10;57.00;;;;;;5035597;28;19909;-67
2021/05/18 14:34:34;;;;;;;;;;;20.10;57.10;;;;;;5030124;28;19920;-67
2021/05/18 14:37:00;;;;;;;;;;;20.10;57.00;;;;;;5034576;28;20429;-67
2021/05/18 14:39:36;;;;;;;;;;;20.10;57.00;;;;;;5040896;28;20003;-66
2021/05/18 14:44:46;;;;;;;;;;;20.10;57.00;;;;;;5022079;28;19916;-67
2021/05/18 14:47:16;;;;;;;;;;;20.20;57.00;;;;;;5031436;28;19908;-67
2021/05/18 14:55:17;;;;;;;;;;;20.10;57.30;;;;;;5027044;28;19919;-67
2021/05/18 14:57:43;;;;;;;;;;;20.00;57.20;;;;;;5030368;28;19916;-67
2021/05/18 15:00:09;;;;;;;;;;;20.10;57.30;;;;;;5025665;28;20283;-67
2021/05/18 15:02:34;;;;;;;;;;;20.10;57.30;;;;;;5031698;28;19939;-67
2021/05/18 15:05:00;;;;;;;;;;;20.10;57.30;;;;;;5036342;28;19916;-66
2021/05/18 15:07:25;;;;;;;;;;;20.10;57.20;;;;;;5019376;28;20006;-66
2021/05/18 15:09:50;;;;;;;;;;;20.10;57.10;;;;;;5019002;28;20437;-67
2021/05/18 15:12:16;;;;;;;;;;;20.10;57.10;;;;;;5036521;28;19909;-66
2021/05/18 15:14:42;;;;;;;;;;;20.10;57.00;;;;;;5036698;28;19909;-64
2021/05/18 15:17:08;;;;;;;;;;;20.10;57.00;;;;;;5039983;28;19996;-66
2021/05/18 15:19:33;;;;;;;;;;;20.10;57.00;;;;;;5033233;28;19912;-66
2021/05/18 15:21:59;;;;;;;;;;;20.20;57.00;;;;;;5045318;28;20372;-66
2021/05/18 15:24:25;;;;;;;;;;;20.10;57.00;;;;;;5032223;28;19929;-66
2021/05/18 15:26:50;;;;;;;;;;;20.10;56.90;;;;;;5028631;28;20368;-66
2021/05/18 15:29:16;;;;;;;;;;;20.10;56.90;;;;;;5024571;28;19917;-66
2021/05/18 15:31:41;;;;;;;;;;;20.10;57.00;;;;;;5023364;28;19921;-66
2021/05/18 15:34:07;;;;;;;;;;;20.10;57.30;;;;;;5024770;28;19913;-66
2021/05/18 15:36:32;;;;;;;;;;;20.00;57.90;;;;;;5006922;28;19924;-65
2021/05/18 15:38:58;;;;;;;;;;;20.00;58.30;;;;;;4997337;28;20261;-64
2021/05/18 15:41:23;;;;;;;;;;;20.00;58.40;;;;;;5021670;28;19925;-67
2021/05/18 15:43:48;;;;;;;;;;;20.00;58.80;;;;;;5024327;28;19917;-67
2021/05/18 15:46:15;;;;;;;;;;;20.00;58.60;;;;;;5034498;28;19958;-66
2021/05/18 15:48:41;;;;;;;;;;;20.00;59.00;;;;;;5022472;28;19920;-66
2021/05/18 15:51:06;;;;;;;;;;;20.00;59.00;;;;;;5041471;28;19917;-67
2021/05/18 15:53:31;;;;;;;;;;;20.00;59.10;;;;;;5015331;28;20309;-67
2021/05/18 15:55:57;;;;;;;;;;;20.00;58.80;;;;;;5030244;28;19913;-66
2021/05/18 15:58:23;;;;;;;;;;;20.00;58.80;;;;;;5031820;28;19916;-66
2021/05/18 16:00:51;;;;;;;;;;;20.00;59.10;;;;;;5028013;28;19920;-66
2021/05/18 16:03:16;;;;;;;;;;;20.00;58.80;;;;;;5026070;28;20398;-66
2021/05/18 16:05:42;;;;;;;;;;;20.00;58.90;;;;;;5028520;28;19913;-67
2021/05/18 16:10:58;;;;;;;;;;;20.00;58.70;;;;;;4987726;28;19971;-67
2021/05/18 16:13:23;;;;;;;;;;;20.00;58.80;;;;;;5033501;28;20380;-67
2021/05/18 16:15:49;;;;;;;;;;;20.00;58.70;;;;;;5023630;28;19920;-66
2021/05/18 16:18:14;;;;;;;;;;;20.00;58.80;;;;;;5027231;28;20014;-66
2021/05/18 16:20:40;;;;;;;;;;;20.00;58.60;;;;;;5028299;28;19914;-66
2021/05/18 16:23:06;;;;;;;;;;;20.10;58.80;;;;;;5007876;28;19916;-66
2021/05/18 16:25:32;;;;;;;;;;;20.10;58.80;;;;;;5014076;28;19921;-67
2021/05/18 16:27:57;;;;;;;;;;;20.00;58.60;;;;;;5019838;28;20000;-67
2021/05/18 16:30:22;;;;;;;;;;;20.10;58.40;;;;;;5029053;28;19920;-67
2021/05/18 16:32:48;;;;;;;;;;;20.10;58.50;;;;;;5021284;28;20501;-66
2021/05/18 16:35:13;;;;;;;;;;;20.10;58.40;;;;;;5027094;28;19917;-66
2021/05/18 16:37:39;;;;;;;;;;;20.10;58.60;;;;;;5028069;28;19913;-67
2021/05/18 16:40:05;;;;;;;;;;;20.10;58.30;;;;;;5033402;28;19928;-66
2021/05/18 16:42:32;;;;;;;;;;;20.10;58.40;;;;;;5023864;28;19928;-67
2021/05/18 16:44:57;;;;;;;;;;;20.10;58.00;;;;;;5028240;28;19917;-66
2021/05/18 16:47:22;;;;;;;;;;;20.10;58.40;;;;;;5027186;28;19909;-67
2021/05/18 16:49:48;;;;;;;;;;;20.10;57.70;;;;;;5028295;28;19917;-67
2021/05/18 16:52:13;;;;;;;;;;;20.20;57.70;;;;;;5028592;28;19921;-67
2021/05/18 16:54:39;;;;;;;;;;;20.10;58.00;;;;;;5028329;28;19928;-66
2021/05/18 16:57:04;;;;;;;;;;;20.10;57.70;;;;;;5025475;28;19917;-66
2021/05/18 16:59:30;;;;;;;;;;;20.10;57.70;;;;;;5031592;28;19913;-66
2021/05/18 17:01:55;;;;;;;;;;;20.20;57.80;;;;;;5028705;28;20376;-67
2021/05/18 17:04:21;;;;;;;;;;;20.20;57.80;;;;;;5029328;28;19920;-67
2021/05/18 17:06:49;;;;;;;;;;;20.20;57.60;;;;;;5026937;28;20384;-67
2021/05/18 17:09:14;;;;;;;;;;;20.20;57.60;;;;;;5040433;28;19917;-67
2021/05/18 17:11:40;;;;;;;;;;;20.20;57.60;;;;;;5032835;28;19932;-65
2021/05/18 17:14:05;;;;;;;;;;;20.10;57.80;;;;;;5026430;28;20404;-67
2021/05/18 17:16:31;;;;;;;;;;;20.20;57.70;;;;;;5023178;28;20030;-68
2021/05/18 17:18:57;;;;;;;;;;;20.20;57.70;;;;;;5011816;28;19959;-67
2021/05/18 17:21:22;;;;;;;;;;;20.20;57.60;;;;;;5027494;28;19921;-68
2021/05/18 17:23:48;;;;;;;;;;;20.20;57.60;;;;;;5039115;28;20948;-67
2021/05/18 17:26:13;;;;;;;;;;;20.20;57.60;;;;;;5024157;28;19918;-67
2021/05/18 17:28:40;;;;;;;;;;;20.20;57.90;;;;;;5015245;28;19921;-67
2021/05/18 17:31:08;;;;;;;;;;;20.20;58.30;;;;;;5028908;28;19924;-67
2021/05/18 17:33:34;;;;;;;;;;;20.20;57.70;;;;;;5027168;28;19955;-67
2021/05/18 17:35:59;;;;;;;;;;;20.20;57.60;;;;;;5019975;28;19951;-67
2021/05/18 17:38:25;;;;;;;;;;;20.20;57.60;;;;;;5025021;28;19920;-67
2021/05/18 17:40:50;;;;;;;;;;;20.20;57.70;;;;;;5019496;28;19917;-67
2021/05/18 17:43:17;;;;;;;;;;;20.20;57.70;;;;;;5027096;28;19921;-67
2021/05/18 17:45:43;;;;;;;;;;;20.20;57.80;;;;;;5020854;28;19921;-65
2021/05/18 17:48:09;;;;;;;;;;;20.20;57.60;;;;;;5023160;28;19925;-66
2021/05/18 17:50:34;;;;;;;;;;;20.20;57.70;;;;;;5030678;28;19921;-65
2021/05/18 17:52:59;;;;;;;;;;;20.20;57.80;;;;;;5020094;28;19925;-66
2021/05/18 17:55:26;;;;;;;;;;;20.20;58.40;;;;;;5028891;28;20011;-67
2021/05/18 17:57:51;;;;;;;;;;;20.10;58.60;;;;;;5020386;28;19921;-65
2021/05/18 18:00:17;;;;;;;;;;;20.20;58.40;;;;;;5018784;28;19917;-65
2021/05/18 18:02:42;;;;;;;;;;;20.10;58.70;;;;;;5023715;28;20381;-67
2021/05/18 18:05:08;;;;;;;;;;;20.20;58.70;;;;;;5027355;28;19925;-66
2021/05/18 18:07:33;;;;;;;;;;;20.20;59.00;;;;;;5029291;28;20342;-66
2021/05/18 18:10:01;;;;;;;;;;;20.20;58.90;;;;;;5025674;28;19921;-66
2021/05/18 18:12:27;;;;;;;;;;;20.20;59.00;;;;;;5020204;28;19917;-66
2021/05/18 18:14:52;;;;;;;;;;;20.20;59.20;;;;;;5019454;28;19925;-66
2021/05/18 18:17:21;;;;;;;;;;;20.20;59.20;;;;;;5020324;28;19924;-67
2021/05/18 18:19:47;;;;;;;;;;;20.20;59.50;;;;;;5030138;28;19917;-68
2021/05/18 18:22:13;;;;;;;;;;;20.20;59.50;;;;;;5026171;28;22318;-68
2021/05/18 18:24:39;;;;;;;;;;;20.20;59.40;;;;;;5024038;28;19918;-67
2021/05/18 18:27:08;;;;;;;;;;;20.20;59.50;;;;;;5018117;28;19917;-67
2021/05/18 18:29:34;;;;;;;;;;;20.20;59.90;;;;;;5021690;28;19921;-67
2021/05/18 18:31:59;;;;;;;;;;;20.20;59.80;;;;;;5021464;28;19925;-67
2021/05/18 18:34:27;;;;;;;;;;;20.20;60.20;;;;;;5022039;28;19918;-66
2021/05/18 18:36:53;;;;;;;;;;;20.20;59.80;;;;;;5014446;28;19918;-67
2021/05/18 18:39:18;;;;;;;;;;;20.20;59.90;;;;;;5012549;28;19925;-67
2021/05/18 18:41:44;;;;;;;;;;;20.20;60.00;;;;;;5020967;28;19921;-65
2021/05/18 18:44:09;;;;;;;;;;;20.30;60.20;;;;;;5021561;28;19921;-67
2021/05/18 18:46:37;;;;;;;;;;;20.20;60.50;;;;;;5030103;28;19924;-66
2021/05/18 18:49:03;;;;;;;;;;;20.20;59.90;;;;;;5021251;28;19948;-66
2021/05/18 18:51:32;;;;;;;;;;;20.20;60.10;;;;;;5021319;28;19961;-66
2021/05/18 18:53:57;;;;;;;;;;;20.20;60.30;;;;;;5020781;28;19956;-67
2021/05/18 18:56:23;;;;;;;;;;;20.20;60.20;;;;;;5018688;28;19955;-67
2021/05/18 18:58:48;;;;;;;;;;;20.20;60.20;;;;;;5015198;28;19918;-67
2021/05/18 19:01:14;;;;;;;;;;;20.30;60.20;;;;;;5023114;28;20323;-67
2021/05/18 19:03:44;;;;;;;;;;;20.30;59.90;;;;;;5023095;28;19925;-67
2021/05/18 19:06:17;;;;;;;;;;;20.30;59.90;;;;;;5024837;28;20400;-66
2021/05/18 19:09:04;;;;;;;;;;;20.30;59.90;;;;;;5023702;28;19937;-67
2021/05/18 19:14:03;;;;;;;;;;;20.30;59.90;;;;;;5018543;28;19925;-67
2021/05/18 19:16:28;;;;;;;;;;;20.30;59.30;;;;;;5025325;28;19917;-67
2021/05/18 19:18:54;;;;;;;;;;;20.30;59.30;;;;;;5018609;28;20400;-67
2021/05/18 19:21:19;;;;;;;;;;;20.40;59.70;;;;;;5024856;28;19925;-67
2021/05/18 19:23:45;;;;;;;;;;;20.30;59.50;;;;;;5002656;28;20345;-66